Kine — C6WT4 — position and weather

sailwx.info

Track history (hours):
 
Tides and Currents Weather Stations Pressure Air Temp Water Temp Dewpoint Dewpoint Depression Visibility Wind Speed Wind Dir Waves Ship Positions

Kine

Last reported at 2014-Aug-21 20:24 UTC. Time now 2014-Aug-21 21:58 UTC.
Position N 51°14' E 003°13'.

Length 89 m; draft 3.5 m.

Type: Cargo ship. MMSI: 311117000.

Date/timePositionNaut miles runAvg speedWind from/ knotsBaromVisibWave heightAir tempDewpointWater temp
2014-Aug-21 20:24N 51°14' E 003°13'0 0.0
2014-Aug-21 19:33N 51°14' E 003°13'0 0.0
2014-Aug-21 15:33N 51°14' E 003°13'4 3.5
2014-Aug-21 14:32N 51°18' E 003°12'3 2.2
2014-Aug-21 13:24N 51°20' E 003°12'6 7.5
2014-Aug-21 12:33N 51°22' E 003°02'1110.6
2014-Aug-21 11:33N 51°22' E 002°45'6 5.6
2014-Aug-21 10:33N 51°27' E 002°42'47 9.3
2014-Aug-21 05:27N 52°11' E 002°14'1010.9
2014-Aug-21 04:33N 52°20' E 002°07'1110.9
2014-Aug-21 03:33N 52°30' E 001°59'1110.8
2014-Aug-21 02:33N 52°39' E 001°51'1010.2
2014-Aug-21 01:33N 52°47' E 001°40'10 9.6
2014-Aug-21 00:33N 52°54' E 001°29'9 8.9
2014-Aug-20 23:34N 52°59' E 001°17'42 8.3
2014-Aug-20 18:33N 53°32' E 000°34'8 8.5
2014-Aug-20 17:33N 53°40' E 000°29'9 8.9
2014-Aug-20 16:33N 53°47' E 000°21'10 9.4
2014-Aug-20 15:32N 53°56' E 000°13'10 9.9
2014-Aug-20 14:33N 54°04' E 000°05'1010.5
2014-Aug-20 13:33N 54°13' W 000°04'1010.4
2014-Aug-20 12:33N 54°22' W 000°13'1110.5
2014-Aug-20 11:33N 54°31' W 000°22'1110.5
2014-Aug-20 10:33N 54°40' W 000°32'1010.2
2014-Aug-20 09:33N 54°49' W 000°41'10 9.8
2014-Aug-20 08:33N 54°57' W 000°49'77 9.6
2014-Aug-20 00:32N 55°58' W 002°13'1010.2
2014-Aug-19 23:32N 56°02' W 002°29'1010.1
2014-Aug-19 22:33N 56°05' W 002°46'1010.0
2014-Aug-19 21:33N 56°03' W 003°04'9 9.1
2014-Aug-19 20:33N 56°01' W 003°20'9 9.1
2014-Aug-19 19:33N 56°02' W 003°36'4 3.6
2014-Aug-19 18:33N 56°02' W 003°42'0 0.0
2014-Aug-19 17:31N 56°02' W 003°42'0 0.0
2014-Aug-19 16:31N 56°02' W 003°42'0 0.0
2014-Aug-19 15:31N 56°02' W 003°42'0 0.0
2014-Aug-19 14:31N 56°02' W 003°42'0 0.0
2014-Aug-19 13:31N 56°02' W 003°42'0 0.0
2014-Aug-19 12:31N 56°02' W 003°42'0 0.0
2014-Aug-19 11:31N 56°02' W 003°42'0 0.0
2014-Aug-19 10:28N 56°02' W 003°42'0 0.0
2014-Aug-19 09:31N 56°02' W 003°42'0 0.0
2014-Aug-19 08:28N 56°02' W 003°42'0 0.0
2014-Aug-19 07:31N 56°02' W 003°42'0 0.0
2014-Aug-19 06:31N 56°02' W 003°42'0 0.0
2014-Aug-19 05:31N 56°02' W 003°42'0 0.0
2014-Aug-19 04:31N 56°02' W 003°42'0 0.0
2014-Aug-19 03:31N 56°02' W 003°42'0 0.0
2014-Aug-19 02:31N 56°02' W 003°42'0 0.0
2014-Aug-19 01:31N 56°02' W 003°42'0 0.0
2014-Aug-19 00:31N 56°02' W 003°42'0 0.0
2014-Aug-18 23:31N 56°02' W 003°42'0 0.0
2014-Aug-18 22:31N 56°02' W 003°42'0 0.0
2014-Aug-18 21:31N 56°02' W 003°42'0 0.0
2014-Aug-18 20:31N 56°02' W 003°42'0 0.0
2014-Aug-18 19:31N 56°02' W 003°42'0 0.0
2014-Aug-18 18:31N 56°02' W 003°42'1 0.9
2014-Aug-18 17:33N 56°02' W 003°41'6 6.4
2014-Aug-18 16:33N 56°01' W 003°30'9 9.2
2014-Aug-18 15:33N 56°02' W 003°13'8 8.3
2014-Aug-18 14:33N 56°04' W 002°59'9 9.1
2014-Aug-18 13:33N 56°06' W 002°43'9 9.2
2014-Aug-18 12:33N 56°05' W 002°27'9 9.3
2014-Aug-18 11:33N 56°02' W 002°10'265 5.6
2014-Aug-16 12:33N 54°41' E 005°14'7 7.3
2014-Aug-16 11:33N 54°38' E 005°25'57 7.8
2014-Aug-16 04:16N 54°18' E 006°57'6 8.7
2014-Aug-16 03:33N 54°16' E 007°07'8 8.2
2014-Aug-16 02:33N 54°13' E 007°20'7 7.3
2014-Aug-16 01:33N 54°09' E 007°31'7 7.3
2014-Aug-16 00:34N 54°03' E 007°37'14 6.8
2014-Aug-15 22:33N 53°53' E 007°52'8 8.0
2014-Aug-15 21:33N 53°50' E 008°05'1010.4
2014-Aug-15 20:33N 53°43' E 008°18'1212.4
2014-Aug-15 19:33N 53°34' E 008°32'1111.1
2014-Aug-15 18:33N 53°23' E 008°30'1110.6
2014-Aug-15 17:34N 53°12' E 008°30'9 8.5
2014-Aug-15 16:33N 53°07' E 008°42'3 2.9
2014-Aug-15 15:31N 53°06' E 008°46'0 0.0
2014-Aug-15 14:31N 53°06' E 008°46'0 0.0
2014-Aug-15 13:31N 53°06' E 008°46'0 0.0
2014-Aug-15 12:31N 53°06' E 008°46'0 0.0
2014-Aug-15 11:31N 53°06' E 008°46'0 0.0
2014-Aug-15 10:31N 53°06' E 008°46'0 0.0
2014-Aug-15 09:33N 53°06' E 008°46'3 3.2
2014-Aug-15 08:33N 53°07' E 008°41'8 7.9
2014-Aug-15 07:33N 53°12' E 008°31'9 7.6
2014-Aug-15 06:25N 53°21' E 008°30'7 7.7
2014-Aug-15 05:33N 53°27' E 008°29'7 7.1
2014-Aug-15 04:33N 53°34' E 008°32'8 8.4
2014-Aug-15 03:33N 53°40' E 008°22'8 7.9
2014-Aug-15 02:34N 53°45' E 008°12'7 6.7
2014-Aug-15 01:33N 53°50' E 008°04'7 6.9
2014-Aug-15 00:33N 53°53' E 007°53'7 7.0
2014-Aug-14 23:33N 53°59' E 007°57'6 5.6
2014-Aug-14 22:33N 54°01' E 008°05'7 6.3
2014-Aug-14 21:30N 54°01' E 008°17'8 8.7
2014-Aug-14 20:33N 53°59' E 008°30'10 9.6
2014-Aug-14 19:33N 53°53' E 008°43'1010.2
2014-Aug-14 18:33N 53°51' E 009°00'1010.0
2014-Aug-14 17:34N 53°52' E 009°17'9 9.1
2014-Aug-14 16:34N 53°45' E 009°26'8 7.6
2014-Aug-14 15:33N 53°38' E 009°32'7 7.0
2014-Aug-14 14:33N 53°34' E 009°42'7 6.5
2014-Aug-14 13:33N 53°33' E 009°52'4 3.3
2014-Aug-14 12:28N 53°31' E 009°58'0 0.0
2014-Aug-14 11:28N 53°32' E 009°58'0 0.0
2014-Aug-14 10:31N 53°31' E 009°58'0 0.0
2014-Aug-14 09:31N 53°31' E 009°58'0 0.0
2014-Aug-14 08:28N 53°31' E 009°58'0 0.0
2014-Aug-14 07:28N 53°31' E 009°58'0 0.0
2014-Aug-14 06:31N 53°31' E 009°58'0 0.0
2014-Aug-14 05:28N 53°31' E 009°58'0 0.0
2014-Aug-14 04:28N 53°31' E 009°58'0 0.0
2014-Aug-14 03:31N 53°32' E 009°58'0 0.1
2014-Aug-14 02:28N 53°31' E 009°58'0 0.0
2014-Aug-14 01:28N 53°31' E 009°58'0 0.0
2014-Aug-14 00:28N 53°31' E 009°58'0 0.0
2014-Aug-13 23:31N 53°31' E 009°58'0 0.0
2014-Aug-13 22:31N 53°31' E 009°58'0 0.0
2014-Aug-13 21:31N 53°31' E 009°58'0 0.0
2014-Aug-13 20:31N 53°31' E 009°58'0 0.0
2014-Aug-13 19:28N 53°31' E 009°58'0 0.0
2014-Aug-13 18:22N 53°31' E 009°58'0 0.0
2014-Aug-13 17:31N 53°31' E 009°58'0 0.4
2014-Aug-13 16:33N 53°32' E 009°57'7 7.1
2014-Aug-13 15:34N 53°34' E 009°46'1111.0
2014-Aug-13 14:33N 53°40' E 009°31'1212.0
2014-Aug-13 13:33N 53°50' E 009°20'1212.0
2014-Aug-13 12:34N 53°51' E 009°00'1111.4
2014-Aug-13 11:33N 53°54' E 008°42'1212.0
2014-Aug-13 10:33N 53°59' E 008°23'1211.9
2014-Aug-13 09:33N 54°00' E 008°03'1110.8
2014-Aug-13 08:34N 54°06' E 007°47'9 9.2
2014-Aug-13 07:33N 54°13' E 007°39'9 8.7
2014-Aug-13 06:33N 54°22' E 007°35'8 8.2
2014-Aug-13 05:34N 54°30' E 007°33'8 8.1
2014-Aug-13 04:33N 54°38' E 007°32'16 7.9
2014-Aug-13 02:32N 54°54' E 007°30'8 7.8
2014-Aug-13 01:33N 55°02' E 007°29'8 7.7
2014-Aug-13 00:33N 55°09' E 007°28'8 7.8
2014-Aug-12 23:33N 55°17' E 007°27'8 8.5
2014-Aug-12 22:34N 55°25' E 007°26'  
Track history (hours):
 
Tides and Currents Weather Stations Pressure Air Temp Water Temp Dewpoint Dewpoint Depression Visibility Wind Speed Wind Dir Waves Ship Positions

Kine

Last reported at 2014-Aug-21 20:24 UTC. Time now 2014-Aug-21 21:58 UTC.
Position N 51°14' E 003°13'.

Length 89 m; draft 3.5 m.

Type: Cargo ship. MMSI: 311117000.

Date/timePositionNaut miles runAvg speedWind from/ knotsBaromVisibWave heightAir tempDewpointWater temp
2014-Aug-21 20:24N 51°14' E 003°13'0 0.0
2014-Aug-21 19:33N 51°14' E 003°13'0 0.0
2014-Aug-21 15:33N 51°14' E 003°13'4 3.5
2014-Aug-21 14:32N 51°18' E 003°12'3 2.2
2014-Aug-21 13:24N 51°20' E 003°12'6 7.5
2014-Aug-21 12:33N 51°22' E 003°02'1110.6
2014-Aug-21 11:33N 51°22' E 002°45'6 5.6
2014-Aug-21 10:33N 51°27' E 002°42'47 9.3
2014-Aug-21 05:27N 52°11' E 002°14'1010.9
2014-Aug-21 04:33N 52°20' E 002°07'1110.9
2014-Aug-21 03:33N 52°30' E 001°59'1110.8
2014-Aug-21 02:33N 52°39' E 001°51'1010.2
2014-Aug-21 01:33N 52°47' E 001°40'10 9.6
2014-Aug-21 00:33N 52°54' E 001°29'9 8.9
2014-Aug-20 23:34N 52°59' E 001°17'42 8.3
2014-Aug-20 18:33N 53°32' E 000°34'8 8.5
2014-Aug-20 17:33N 53°40' E 000°29'9 8.9
2014-Aug-20 16:33N 53°47' E 000°21'10 9.4
2014-Aug-20 15:32N 53°56' E 000°13'10 9.9
2014-Aug-20 14:33N 54°04' E 000°05'1010.5
2014-Aug-20 13:33N 54°13' W 000°04'1010.4
2014-Aug-20 12:33N 54°22' W 000°13'1110.5
2014-Aug-20 11:33N 54°31' W 000°22'1110.5
2014-Aug-20 10:33N 54°40' W 000°32'1010.2
2014-Aug-20 09:33N 54°49' W 000°41'10 9.8
2014-Aug-20 08:33N 54°57' W 000°49'77 9.6
2014-Aug-20 00:32N 55°58' W 002°13'1010.2
2014-Aug-19 23:32N 56°02' W 002°29'1010.1
2014-Aug-19 22:33N 56°05' W 002°46'1010.0
2014-Aug-19 21:33N 56°03' W 003°04'9 9.1
2014-Aug-19 20:33N 56°01' W 003°20'9 9.1
2014-Aug-19 19:33N 56°02' W 003°36'4 3.6
2014-Aug-19 18:33N 56°02' W 003°42'0 0.0
2014-Aug-19 17:31N 56°02' W 003°42'0 0.0
2014-Aug-19 16:31N 56°02' W 003°42'0 0.0
2014-Aug-19 15:31N 56°02' W 003°42'0 0.0
2014-Aug-19 14:31N 56°02' W 003°42'0 0.0
2014-Aug-19 13:31N 56°02' W 003°42'0 0.0
2014-Aug-19 12:31N 56°02' W 003°42'0 0.0
2014-Aug-19 11:31N 56°02' W 003°42'0 0.0
2014-Aug-19 10:28N 56°02' W 003°42'0 0.0
2014-Aug-19 09:31N 56°02' W 003°42'0 0.0
2014-Aug-19 08:28N 56°02' W 003°42'0 0.0
2014-Aug-19 07:31N 56°02' W 003°42'0 0.0
2014-Aug-19 06:31N 56°02' W 003°42'0 0.0
2014-Aug-19 05:31N 56°02' W 003°42'0 0.0
2014-Aug-19 04:31N 56°02' W 003°42'0 0.0
2014-Aug-19 03:31N 56°02' W 003°42'0 0.0
2014-Aug-19 02:31N 56°02' W 003°42'0 0.0
2014-Aug-19 01:31N 56°02' W 003°42'0 0.0
2014-Aug-19 00:31N 56°02' W 003°42'0 0.0
2014-Aug-18 23:31N 56°02' W 003°42'0 0.0
2014-Aug-18 22:31N 56°02' W 003°42'0 0.0
2014-Aug-18 21:31N 56°02' W 003°42'0 0.0
2014-Aug-18 20:31N 56°02' W 003°42'0 0.0
2014-Aug-18 19:31N 56°02' W 003°42'0 0.0
2014-Aug-18 18:31N 56°02' W 003°42'1 0.9
2014-Aug-18 17:33N 56°02' W 003°41'6 6.4
2014-Aug-18 16:33N 56°01' W 003°30'9 9.2
2014-Aug-18 15:33N 56°02' W 003°13'8 8.3
2014-Aug-18 14:33N 56°04' W 002°59'9 9.1
2014-Aug-18 13:33N 56°06' W 002°43'9 9.2
2014-Aug-18 12:33N 56°05' W 002°27'9 9.3
2014-Aug-18 11:33N 56°02' W 002°10'265 5.6
2014-Aug-16 12:33N 54°41' E 005°14'7 7.3
2014-Aug-16 11:33N 54°38' E 005°25'57 7.8
2014-Aug-16 04:16N 54°18' E 006°57'6 8.7
2014-Aug-16 03:33N 54°16' E 007°07'8 8.2
2014-Aug-16 02:33N 54°13' E 007°20'7 7.3
2014-Aug-16 01:33N 54°09' E 007°31'7 7.3
2014-Aug-16 00:34N 54°03' E 007°37'14 6.8
2014-Aug-15 22:33N 53°53' E 007°52'8 8.0
2014-Aug-15 21:33N 53°50' E 008°05'1010.4
2014-Aug-15 20:33N 53°43' E 008°18'1212.4
2014-Aug-15 19:33N 53°34' E 008°32'1111.1
2014-Aug-15 18:33N 53°23' E 008°30'1110.6
2014-Aug-15 17:34N 53°12' E 008°30'9 8.5
2014-Aug-15 16:33N 53°07' E 008°42'3 2.9
2014-Aug-15 15:31N 53°06' E 008°46'0 0.0
2014-Aug-15 14:31N 53°06' E 008°46'0 0.0
2014-Aug-15 13:31N 53°06' E 008°46'0 0.0
2014-Aug-15 12:31N 53°06' E 008°46'0 0.0
2014-Aug-15 11:31N 53°06' E 008°46'0 0.0
2014-Aug-15 10:31N 53°06' E 008°46'0 0.0
2014-Aug-15 09:33N 53°06' E 008°46'3 3.2
2014-Aug-15 08:33N 53°07' E 008°41'8 7.9
2014-Aug-15 07:33N 53°12' E 008°31'9 7.6
2014-Aug-15 06:25N 53°21' E 008°30'7 7.7
2014-Aug-15 05:33N 53°27' E 008°29'7 7.1
2014-Aug-15 04:33N 53°34' E 008°32'8 8.4
2014-Aug-15 03:33N 53°40' E 008°22'8 7.9
2014-Aug-15 02:34N 53°45' E 008°12'7 6.7
2014-Aug-15 01:33N 53°50' E 008°04'7 6.9
2014-Aug-15 00:33N 53°53' E 007°53'7 7.0
2014-Aug-14 23:33N 53°59' E 007°57'6 5.6
2014-Aug-14 22:33N 54°01' E 008°05'7 6.3
2014-Aug-14 21:30N 54°01' E 008°17'8 8.7
2014-Aug-14 20:33N 53°59' E 008°30'10 9.6
2014-Aug-14 19:33N 53°53' E 008°43'1010.2
2014-Aug-14 18:33N 53°51' E 009°00'1010.0
2014-Aug-14 17:34N 53°52' E 009°17'9 9.1
2014-Aug-14 16:34N 53°45' E 009°26'8 7.6
2014-Aug-14 15:33N 53°38' E 009°32'7 7.0
2014-Aug-14 14:33N 53°34' E 009°42'7 6.5
2014-Aug-14 13:33N 53°33' E 009°52'4 3.3
2014-Aug-14 12:28N 53°31' E 009°58'0 0.0
2014-Aug-14 11:28N 53°32' E 009°58'0 0.0
2014-Aug-14 10:31N 53°31' E 009°58'0 0.0
2014-Aug-14 09:31N 53°31' E 009°58'0 0.0
2014-Aug-14 08:28N 53°31' E 009°58'0 0.0
2014-Aug-14 07:28N 53°31' E 009°58'0 0.0
2014-Aug-14 06:31N 53°31' E 009°58'0 0.0
2014-Aug-14 05:28N 53°31' E 009°58'0 0.0
2014-Aug-14 04:28N 53°31' E 009°58'0 0.0
2014-Aug-14 03:31N 53°32' E 009°58'0 0.1
2014-Aug-14 02:28N 53°31' E 009°58'0 0.0
2014-Aug-14 01:28N 53°31' E 009°58'0 0.0
2014-Aug-14 00:28N 53°31' E 009°58'0 0.0
2014-Aug-13 23:31N 53°31' E 009°58'0 0.0
2014-Aug-13 22:31N 53°31' E 009°58'0 0.0
2014-Aug-13 21:31N 53°31' E 009°58'0 0.0
2014-Aug-13 20:31N 53°31' E 009°58'0 0.0
2014-Aug-13 19:28N 53°31' E 009°58'0 0.0
2014-Aug-13 18:22N 53°31' E 009°58'0 0.0
2014-Aug-13 17:31N 53°31' E 009°58'0 0.4
2014-Aug-13 16:33N 53°32' E 009°57'7 7.1
2014-Aug-13 15:34N 53°34' E 009°46'1111.0
2014-Aug-13 14:33N 53°40' E 009°31'1212.0
2014-Aug-13 13:33N 53°50' E 009°20'1212.0
2014-Aug-13 12:34N 53°51' E 009°00'1111.4
2014-Aug-13 11:33N 53°54' E 008°42'1212.0
2014-Aug-13 10:33N 53°59' E 008°23'1211.9
2014-Aug-13 09:33N 54°00' E 008°03'1110.8
2014-Aug-13 08:34N 54°06' E 007°47'9 9.2
2014-Aug-13 07:33N 54°13' E 007°39'9 8.7
2014-Aug-13 06:33N 54°22' E 007°35'8 8.2
2014-Aug-13 05:34N 54°30' E 007°33'8 8.1
2014-Aug-13 04:33N 54°38' E 007°32'16 7.9
2014-Aug-13 02:32N 54°54' E 007°30'8 7.8
2014-Aug-13 01:33N 55°02' E 007°29'8 7.7
2014-Aug-13 00:33N 55°09' E 007°28'8 7.8
2014-Aug-12 23:33N 55°17' E 007°27'8 8.5
2014-Aug-12 22:34N 55°25' E 007°26'  

Dump ship's entire track history